sensor_id;sensor_type;location;lat;lon;timestamp;temperature;humidity
53264;DHT22;39153;52.680;6.172;2023-02-16T00:00:18;4.70;99.90
53264;DHT22;39153;52.680;6.172;2023-02-16T00:02:44;4.70;99.90
53264;DHT22;39153;52.680;6.172;2023-02-16T00:05:37;4.70;99.90
53264;DHT22;39153;52.680;6.172;2023-02-16T00:08:02;5.00;99.90
53264;DHT22;39153;52.680;6.172;2023-02-16T00:10:33;4.60;99.90
53264;DHT22;39153;52.680;6.172;2023-02-16T00:12:59;4.50;99.90
53264;DHT22;39153;52.680;6.172;2023-02-16T00:15:44;4.80;99.90
53264;DHT22;39153;52.680;6.172;2023-02-16T00:18:18;4.50;99.90
53264;DHT22;39153;52.680;6.172;2023-02-16T00:20:45;4.50;99.90
53264;DHT22;39153;52.680;6.172;2023-02-16T00:23:11;4.50;99.90
53264;DHT22;39153;52.680;6.172;2023-02-16T00:25:37;4.60;99.90
53264;DHT22;39153;52.680;6.172;2023-02-16T00:28:14;5.00;99.90
53264;DHT22;39153;52.680;6.172;2023-02-16T00:30:40;4.70;99.90
53264;DHT22;39153;52.680;6.172;2023-02-16T00:33:17;4.60;99.90
53264;DHT22;39153;52.680;6.172;2023-02-16T00:35:43;4.60;99.90
53264;DHT22;39153;52.680;6.172;2023-02-16T00:38:10;4.50;99.90
53264;DHT22;39153;52.680;6.172;2023-02-16T00:40:36;4.50;99.90
53264;DHT22;39153;52.680;6.172;2023-02-16T00:43:03;4.50;99.90
53264;DHT22;39153;52.680;6.172;2023-02-16T00:45:29;4.50;99.90
53264;DHT22;39153;52.680;6.172;2023-02-16T00:47:56;4.50;99.90
53264;DHT22;39153;52.680;6.172;2023-02-16T00:50:29;4.80;99.90
53264;DHT22;39153;52.680;6.172;2023-02-16T00:52:55;4.50;99.90
53264;DHT22;39153;52.680;6.172;2023-02-16T00:55:28;4.50;99.90
53264;DHT22;39153;52.680;6.172;2023-02-16T00:58:19;4.40;99.90
53264;DHT22;39153;52.680;6.172;2023-02-16T01:00:49;4.40;99.90
53264;DHT22;39153;52.680;6.172;2023-02-16T01:03:19;4.90;99.90
53264;DHT22;39153;52.680;6.172;2023-02-16T01:05:45;4.40;99.90
53264;DHT22;39153;52.680;6.172;2023-02-16T01:08:14;4.40;99.90
53264;DHT22;39153;52.680;6.172;2023-02-16T01:11:01;4.80;99.90
53264;DHT22;39153;52.680;6.172;2023-02-16T01:13:42;4.50;99.90
53264;DHT22;39153;52.680;6.172;2023-02-16T01:16:17;4.40;99.90
53264;DHT22;39153;52.680;6.172;2023-02-16T01:18:43;4.40;99.90
53264;DHT22;39153;52.680;6.172;2023-02-16T01:21:09;4.40;99.90
53264;DHT22;39153;52.680;6.172;2023-02-16T01:23:36;4.40;99.90
53264;DHT22;39153;52.680;6.172;2023-02-16T01:26:03;4.30;99.90
53264;DHT22;39153;52.680;6.172;2023-02-16T01:28:29;4.30;99.90
53264;DHT22;39153;52.680;6.172;2023-02-16T01:30:58;4.40;99.90
53264;DHT22;39153;52.680;6.172;2023-02-16T01:33:23;4.30;99.90
53264;DHT22;39153;52.680;6.172;2023-02-16T01:35:49;4.30;99.90
53264;DHT22;39153;52.680;6.172;2023-02-16T01:38:22;4.20;99.90
53264;DHT22;39153;52.680;6.172;2023-02-16T01:41:05;4.30;99.90
53264;DHT22;39153;52.680;6.172;2023-02-16T01:43:44;4.30;99.90
53264;DHT22;39153;52.680;6.172;2023-02-16T01:46:15;4.40;99.90
53264;DHT22;39153;52.680;6.172;2023-02-16T01:48:42;4.40;99.90
53264;DHT22;39153;52.680;6.172;2023-02-16T01:51:34;4.30;99.90
53264;DHT22;39153;52.680;6.172;2023-02-16T01:54:16;4.40;99.90
53264;DHT22;39153;52.680;6.172;2023-02-16T01:56:49;4.40;99.90
53264;DHT22;39153;52.680;6.172;2023-02-16T01:59:32;4.50;99.90
53264;DHT22;39153;52.680;6.172;2023-02-16T02:02:10;4.40;99.90
53264;DHT22;39153;52.680;6.172;2023-02-16T02:04:43;4.40;99.90
53264;DHT22;39153;52.680;6.172;2023-02-16T02:07:57;4.40;99.90
53264;DHT22;39153;52.680;6.172;2023-02-16T02:15:51;4.40;99.90
53264;DHT22;39153;52.680;6.172;2023-02-16T02:18:17;4.40;99.90
53264;DHT22;39153;52.680;6.172;2023-02-16T02:23:51;4.30;99.90
53264;DHT22;39153;52.680;6.172;2023-02-16T02:36:54;4.20;99.90
53264;DHT22;39153;52.680;6.172;2023-02-16T02:39:47;4.40;99.90
53264;DHT22;39153;52.680;6.172;2023-02-16T02:45:08;4.20;99.90
53264;DHT22;39153;52.680;6.172;2023-02-16T02:47:44;4.20;99.90
53264;DHT22;39153;52.680;6.172;2023-02-16T02:53:33;4.10;99.90
53264;DHT22;39153;52.680;6.172;2023-02-16T02:56:00;4.30;99.90
53264;DHT22;39153;52.680;6.172;2023-02-16T02:58:47;4.20;99.90
53264;DHT22;39153;52.680;6.172;2023-02-16T03:01:34;4.10;99.90
53264;DHT22;39153;52.680;6.172;2023-02-16T03:04:05;4.00;99.90
53264;DHT22;39153;52.680;6.172;2023-02-16T03:06:41;4.10;99.90
53264;DHT22;39153;52.680;6.172;2023-02-16T03:09:10;4.00;99.90
53264;DHT22;39153;52.680;6.172;2023-02-16T03:11:37;4.10;99.90
53264;DHT22;39153;52.680;6.172;2023-02-16T03:14:29;4.10;99.90
53264;DHT22;39153;52.680;6.172;2023-02-16T03:17:04;4.20;99.90
53264;DHT22;39153;52.680;6.172;2023-02-16T03:19:50;4.20;99.90
53264;DHT22;39153;52.680;6.172;2023-02-16T03:22:35;4.20;99.90
53264;DHT22;39153;52.680;6.172;2023-02-16T03:25:27;4.30;99.90
53264;DHT22;39153;52.680;6.172;2023-02-16T03:28:13;4.30;99.90
53264;DHT22;39153;52.680;6.172;2023-02-16T03:30:59;4.80;99.90
53264;DHT22;39153;52.680;6.172;2023-02-16T03:33:27;4.40;99.90
53264;DHT22;39153;52.680;6.172;2023-02-16T03:35:53;4.40;99.90
53264;DHT22;39153;52.680;6.172;2023-02-16T03:38:19;4.40;99.90
53264;DHT22;39153;52.680;6.172;2023-02-16T03:40:49;4.50;99.90
53264;DHT22;39153;52.680;6.172;2023-02-16T03:43:14;4.50;99.90
53264;DHT22;39153;52.680;6.172;2023-02-16T03:45:42;4.50;99.90
53264;DHT22;39153;52.680;6.172;2023-02-16T03:48:09;4.60;99.90
53264;DHT22;39153;52.680;6.172;2023-02-16T03:50:34;4.50;99.90
53264;DHT22;39153;52.680;6.172;2023-02-16T03:53:01;4.60;99.90
53264;DHT22;39153;52.680;6.172;2023-02-16T03:55:35;4.70;99.90
53264;DHT22;39153;52.680;6.172;2023-02-16T03:58:01;4.60;99.90
53264;DHT22;39153;52.680;6.172;2023-02-16T04:00:27;4.60;99.90
53264;DHT22;39153;52.680;6.172;2023-02-16T04:02:53;4.70;99.90
53264;DHT22;39153;52.680;6.172;2023-02-16T04:05:19;4.70;99.90
53264;DHT22;39153;52.680;6.172;2023-02-16T04:07:44;4.90;99.90
53264;DHT22;39153;52.680;6.172;2023-02-16T04:10:10;4.70;99.90
53264;DHT22;39153;52.680;6.172;2023-02-16T04:12:36;4.80;99.90
53264;DHT22;39153;52.680;6.172;2023-02-16T04:15:07;4.80;99.90
53264;DHT22;39153;52.680;6.172;2023-02-16T04:17:33;4.80;99.90
53264;DHT22;39153;52.680;6.172;2023-02-16T04:19:59;4.80;99.90
53264;DHT22;39153;52.680;6.172;2023-02-16T04:22:25;4.90;99.90
53264;DHT22;39153;52.680;6.172;2023-02-16T04:24:50;5.00;99.90
53264;DHT22;39153;52.680;6.172;2023-02-16T04:27:16;5.30;99.90
53264;DHT22;39153;52.680;6.172;2023-02-16T04:29:42;5.00;99.90
53264;DHT22;39153;52.680;6.172;2023-02-16T04:32:07;5.00;99.90
53264;DHT22;39153;52.680;6.172;2023-02-16T04:34:33;5.00;99.90
53264;DHT22;39153;52.680;6.172;2023-02-16T04:36:59;5.00;99.90
53264;DHT22;39153;52.680;6.172;2023-02-16T04:39:25;5.00;99.90
53264;DHT22;39153;52.680;6.172;2023-02-16T04:41:51;4.90;99.90
53264;DHT22;39153;52.680;6.172;2023-02-16T04:44:16;5.00;99.90
53264;DHT22;39153;52.680;6.172;2023-02-16T04:46:42;5.20;99.90
53264;DHT22;39153;52.680;6.172;2023-02-16T04:49:08;5.00;99.90
53264;DHT22;39153;52.680;6.172;2023-02-16T04:51:34;5.40;99.90
53264;DHT22;39153;52.680;6.172;2023-02-16T04:53:59;5.10;99.90
53264;DHT22;39153;52.680;6.172;2023-02-16T04:56:25;5.10;99.90
53264;DHT22;39153;52.680;6.172;2023-02-16T04:58:52;5.10;99.90
53264;DHT22;39153;52.680;6.172;2023-02-16T05:01:20;5.10;99.90
53264;DHT22;39153;52.680;6.172;2023-02-16T05:03:46;5.00;99.90
53264;DHT22;39153;52.680;6.172;2023-02-16T05:06:12;5.50;99.90
53264;DHT22;39153;52.680;6.172;2023-02-16T05:08:37;5.10;99.90
53264;DHT22;39153;52.680;6.172;2023-02-16T05:11:03;5.10;99.90
53264;DHT22;39153;52.680;6.172;2023-02-16T05:13:47;5.10;99.90
53264;DHT22;39153;52.680;6.172;2023-02-16T05:16:32;5.10;99.90
53264;DHT22;39153;52.680;6.172;2023-02-16T05:18:57;5.10;99.90
53264;DHT22;39153;52.680;6.172;2023-02-16T05:21:23;5.10;99.90
53264;DHT22;39153;52.680;6.172;2023-02-16T05:24:04;5.10;99.90
53264;DHT22;39153;52.680;6.172;2023-02-16T05:26:31;5.10;99.90
53264;DHT22;39153;52.680;6.172;2023-02-16T05:28:57;5.10;99.90
53264;DHT22;39153;52.680;6.172;2023-02-16T05:31:24;5.10;99.90
53264;DHT22;39153;52.680;6.172;2023-02-16T05:33:50;5.20;99.90
53264;DHT22;39153;52.680;6.172;2023-02-16T05:36:16;5.30;99.90
53264;DHT22;39153;52.680;6.172;2023-02-16T05:38:42;5.20;99.90
53264;DHT22;39153;52.680;6.172;2023-02-16T05:41:08;5.30;99.90
53264;DHT22;39153;52.680;6.172;2023-02-16T05:43:33;5.40;99.90
53264;DHT22;39153;52.680;6.172;2023-02-16T05:45:59;5.30;99.90
53264;DHT22;39153;52.680;6.172;2023-02-16T05:48:30;5.40;99.90
53264;DHT22;39153;52.680;6.172;2023-02-16T05:50:56;5.80;99.90
53264;DHT22;39153;52.680;6.172;2023-02-16T05:53:22;5.40;99.90
53264;DHT22;39153;52.680;6.172;2023-02-16T05:55:47;5.40;99.90
53264;DHT22;39153;52.680;6.172;2023-02-16T05:58:13;5.50;99.90
53264;DHT22;39153;52.680;6.172;2023-02-16T06:00:39;5.80;99.90
53264;DHT22;39153;52.680;6.172;2023-02-16T06:03:04;6.00;99.90
53264;DHT22;39153;52.680;6.172;2023-02-16T06:05:30;5.60;99.90
53264;DHT22;39153;52.680;6.172;2023-02-16T06:07:55;5.50;99.90
53264;DHT22;39153;52.680;6.172;2023-02-16T06:10:21;5.50;99.90
53264;DHT22;39153;52.680;6.172;2023-02-16T06:12:47;5.70;99.90
53264;DHT22;39153;52.680;6.172;2023-02-16T06:15:12;5.60;99.90
53264;DHT22;39153;52.680;6.172;2023-02-16T06:17:38;5.90;99.90
53264;DHT22;39153;52.680;6.172;2023-02-16T06:20:04;5.70;99.90
53264;DHT22;39153;52.680;6.172;2023-02-16T06:22:30;5.70;99.90
53264;DHT22;39153;52.680;6.172;2023-02-16T06:24:56;5.60;99.90
53264;DHT22;39153;52.680;6.172;2023-02-16T06:27:22;5.60;99.90
53264;DHT22;39153;52.680;6.172;2023-02-16T06:29:48;5.60;99.90
53264;DHT22;39153;52.680;6.172;2023-02-16T06:32:13;5.60;99.90
53264;DHT22;39153;52.680;6.172;2023-02-16T06:34:39;5.60;99.90
53264;DHT22;39153;52.680;6.172;2023-02-16T06:37:06;5.70;99.90
53264;DHT22;39153;52.680;6.172;2023-02-16T06:39:32;5.60;99.90
53264;DHT22;39153;52.680;6.172;2023-02-16T06:41:57;5.60;99.90
53264;DHT22;39153;52.680;6.172;2023-02-16T06:44:23;5.60;99.90
53264;DHT22;39153;52.680;6.172;2023-02-16T06:46:49;5.70;99.90
53264;DHT22;39153;52.680;6.172;2023-02-16T06:49:17;5.60;99.90
53264;DHT22;39153;52.680;6.172;2023-02-16T06:51:43;5.60;99.90
53264;DHT22;39153;52.680;6.172;2023-02-16T06:54:10;5.70;99.90
53264;DHT22;39153;52.680;6.172;2023-02-16T06:56:36;5.70;99.90
53264;DHT22;39153;52.680;6.172;2023-02-16T06:59:01;5.70;99.90
53264;DHT22;39153;52.680;6.172;2023-02-16T07:01:28;5.70;99.90
53264;DHT22;39153;52.680;6.172;2023-02-16T07:03:55;5.90;99.90
53264;DHT22;39153;52.680;6.172;2023-02-16T07:06:26;5.80;99.90
53264;DHT22;39153;52.680;6.172;2023-02-16T07:08:52;5.80;99.90
53264;DHT22;39153;52.680;6.172;2023-02-16T07:11:18;5.90;99.90
53264;DHT22;39153;52.680;6.172;2023-02-16T07:13:44;5.90;99.90
53264;DHT22;39153;52.680;6.172;2023-02-16T07:16:10;6.00;99.90
53264;DHT22;39153;52.680;6.172;2023-02-16T07:18:36;6.00;99.90
53264;DHT22;39153;52.680;6.172;2023-02-16T07:21:02;6.00;99.90
53264;DHT22;39153;52.680;6.172;2023-02-16T07:23:28;6.10;99.90
53264;DHT22;39153;52.680;6.172;2023-02-16T07:25:53;6.20;99.90
53264;DHT22;39153;52.680;6.172;2023-02-16T07:28:19;6.20;99.90
53264;DHT22;39153;52.680;6.172;2023-02-16T07:30:45;6.20;99.90
53264;DHT22;39153;52.680;6.172;2023-02-16T07:33:10;6.20;99.90
53264;DHT22;39153;52.680;6.172;2023-02-16T07:35:36;6.30;99.90
53264;DHT22;39153;52.680;6.172;2023-02-16T07:38:03;6.20;99.90
53264;DHT22;39153;52.680;6.172;2023-02-16T07:40:30;6.30;99.90
53264;DHT22;39153;52.680;6.172;2023-02-16T07:43:01;6.30;99.90
53264;DHT22;39153;52.680;6.172;2023-02-16T07:45:28;6.30;99.90
53264;DHT22;39153;52.680;6.172;2023-02-16T07:47:54;6.30;99.90
53264;DHT22;39153;52.680;6.172;2023-02-16T07:50:20;6.30;99.90
53264;DHT22;39153;52.680;6.172;2023-02-16T07:52:46;6.50;99.90
53264;DHT22;39153;52.680;6.172;2023-02-16T07:55:11;6.40;99.90
53264;DHT22;39153;52.680;6.172;2023-02-16T07:57:38;6.30;99.90
53264;DHT22;39153;52.680;6.172;2023-02-16T08:00:05;6.30;99.90
53264;DHT22;39153;52.680;6.172;2023-02-16T08:02:32;6.20;99.90
53264;DHT22;39153;52.680;6.172;2023-02-16T08:04:59;6.20;99.90
53264;DHT22;39153;52.680;6.172;2023-02-16T08:07:25;6.20;99.90
53264;DHT22;39153;52.680;6.172;2023-02-16T08:09:51;6.30;99.90
53264;DHT22;39153;52.680;6.172;2023-02-16T08:12:17;6.20;99.90
53264;DHT22;39153;52.680;6.172;2023-02-16T08:14:43;6.20;99.90
53264;DHT22;39153;52.680;6.172;2023-02-16T08:17:11;6.20;99.90
53264;DHT22;39153;52.680;6.172;2023-02-16T08:19:38;6.30;99.90
53264;DHT22;39153;52.680;6.172;2023-02-16T08:22:05;6.20;99.90
53264;DHT22;39153;52.680;6.172;2023-02-16T08:24:31;6.30;99.90
53264;DHT22;39153;52.680;6.172;2023-02-16T08:26:59;6.40;99.90
53264;DHT22;39153;52.680;6.172;2023-02-16T08:29:25;6.40;99.90
53264;DHT22;39153;52.680;6.172;2023-02-16T08:31:51;6.40;99.90
53264;DHT22;39153;52.680;6.172;2023-02-16T08:34:19;6.40;99.90
53264;DHT22;39153;52.680;6.172;2023-02-16T08:36:46;6.50;99.90
53264;DHT22;39153;52.680;6.172;2023-02-16T08:39:15;6.50;99.90
53264;DHT22;39153;52.680;6.172;2023-02-16T08:41:43;6.40;99.90
53264;DHT22;39153;52.680;6.172;2023-02-16T08:44:09;6.50;99.90
53264;DHT22;39153;52.680;6.172;2023-02-16T08:46:37;6.50;99.90
53264;DHT22;39153;52.680;6.172;2023-02-16T08:49:04;6.60;99.90
53264;DHT22;39153;52.680;6.172;2023-02-16T08:51:32;6.60;99.90
53264;DHT22;39153;52.680;6.172;2023-02-16T08:54:04;6.60;99.90
53264;DHT22;39153;52.680;6.172;2023-02-16T08:56:30;6.60;99.90
53264;DHT22;39153;52.680;6.172;2023-02-16T08:58:58;6.70;99.90
53264;DHT22;39153;52.680;6.172;2023-02-16T09:01:24;6.70;99.90
53264;DHT22;39153;52.680;6.172;2023-02-16T09:03:50;6.70;99.90
53264;DHT22;39153;52.680;6.172;2023-02-16T09:06:18;6.70;99.90
53264;DHT22;39153;52.680;6.172;2023-02-16T09:08:56;6.70;99.90
53264;DHT22;39153;52.680;6.172;2023-02-16T09:11:23;6.70;99.90
53264;DHT22;39153;52.680;6.172;2023-02-16T09:13:49;6.80;99.90
53264;DHT22;39153;52.680;6.172;2023-02-16T09:16:20;6.80;99.90
53264;DHT22;39153;52.680;6.172;2023-02-16T09:18:50;6.70;99.90
53264;DHT22;39153;52.680;6.172;2023-02-16T09:21:21;6.80;99.90
53264;DHT22;39153;52.680;6.172;2023-02-16T09:23:48;6.80;99.90
53264;DHT22;39153;52.680;6.172;2023-02-16T09:26:16;6.70;99.90
53264;DHT22;39153;52.680;6.172;2023-02-16T09:28:43;6.80;99.90
53264;DHT22;39153;52.680;6.172;2023-02-16T09:31:14;6.80;99.90
53264;DHT22;39153;52.680;6.172;2023-02-16T09:33:42;6.80;99.90
53264;DHT22;39153;52.680;6.172;2023-02-16T09:36:09;6.80;99.90
53264;DHT22;39153;52.680;6.172;2023-02-16T09:38:36;6.80;99.90
53264;DHT22;39153;52.680;6.172;2023-02-16T09:46:42;6.80;99.90
53264;DHT22;39153;52.680;6.172;2023-02-16T09:49:29;6.80;99.90
53264;DHT22;39153;52.680;6.172;2023-02-16T09:54:53;6.90;99.90
53264;DHT22;39153;52.680;6.172;2023-02-16T09:57:27;6.80;99.90
53264;DHT22;39153;52.680;6.172;2023-02-16T10:02:52;6.90;99.90
53264;DHT22;39153;52.680;6.172;2023-02-16T10:08:25;7.00;99.90
53264;DHT22;39153;52.680;6.172;2023-02-16T10:13:55;6.90;99.90
53264;DHT22;39153;52.680;6.172;2023-02-16T10:16:29;7.10;99.90
53264;DHT22;39153;52.680;6.172;2023-02-16T10:18:57;7.10;99.90
53264;DHT22;39153;52.680;6.172;2023-02-16T10:21:26;7.00;99.90
53264;DHT22;39153;52.680;6.172;2023-02-16T10:23:59;7.20;99.90
53264;DHT22;39153;52.680;6.172;2023-02-16T10:29:04;7.10;99.90
53264;DHT22;39153;52.680;6.172;2023-02-16T10:34:18;7.20;99.90
53264;DHT22;39153;52.680;6.172;2023-02-16T10:39:34;7.10;99.90
53264;DHT22;39153;52.680;6.172;2023-02-16T10:42:12;7.20;99.90
53264;DHT22;39153;52.680;6.172;2023-02-16T10:44:44;7.20;99.90
53264;DHT22;39153;52.680;6.172;2023-02-16T10:47:36;7.20;99.90
53264;DHT22;39153;52.680;6.172;2023-02-16T10:50:03;7.20;99.90
53264;DHT22;39153;52.680;6.172;2023-02-16T10:52:34;7.10;99.90
53264;DHT22;39153;52.680;6.172;2023-02-16T10:55:01;7.10;99.90
53264;DHT22;39153;52.680;6.172;2023-02-16T10:57:31;7.10;99.90
53264;DHT22;39153;52.680;6.172;2023-02-16T11:00:00;7.20;99.90
53264;DHT22;39153;52.680;6.172;2023-02-16T11:02:45;7.30;99.90
53264;DHT22;39153;52.680;6.172;2023-02-16T11:08:00;7.20;99.90
53264;DHT22;39153;52.680;6.172;2023-02-16T11:13:16;7.30;99.90
53264;DHT22;39153;52.680;6.172;2023-02-16T11:15:50;7.30;99.90
53264;DHT22;39153;52.680;6.172;2023-02-16T11:18:29;7.50;99.90
53264;DHT22;39153;52.680;6.172;2023-02-16T11:20:56;7.70;99.90
53264;DHT22;39153;52.680;6.172;2023-02-16T11:23:28;7.60;99.90
53264;DHT22;39153;52.680;6.172;2023-02-16T11:25:59;7.70;99.90
53264;DHT22;39153;52.680;6.172;2023-02-16T11:31:01;7.60;99.90
53264;DHT22;39153;52.680;6.172;2023-02-16T11:33:28;7.70;99.90
53264;DHT22;39153;52.680;6.172;2023-02-16T11:35:54;7.90;99.90
53264;DHT22;39153;52.680;6.172;2023-02-16T11:38:36;7.80;99.90
53264;DHT22;39153;52.680;6.172;2023-02-16T11:41:03;7.90;99.90
53264;DHT22;39153;52.680;6.172;2023-02-16T11:43:36;7.90;99.90
53264;DHT22;39153;52.680;6.172;2023-02-16T11:46:06;7.90;99.90
53264;DHT22;39153;52.680;6.172;2023-02-16T11:48:34;7.80;99.90
53264;DHT22;39153;52.680;6.172;2023-02-16T11:51:08;8.00;99.90
53264;DHT22;39153;52.680;6.172;2023-02-16T11:53:37;8.00;99.90
53264;DHT22;39153;52.680;6.172;2023-02-16T11:56:30;7.90;99.90
53264;DHT22;39153;52.680;6.172;2023-02-16T11:59:18;8.20;99.90
53264;DHT22;39153;52.680;6.172;2023-02-16T12:02:08;8.20;99.90
53264;DHT22;39153;52.680;6.172;2023-02-16T12:07:46;8.40;99.90
53264;DHT22;39153;52.680;6.172;2023-02-16T12:13:18;8.40;99.90
53264;DHT22;39153;52.680;6.172;2023-02-16T12:16:05;8.50;99.90
53264;DHT22;39153;52.680;6.172;2023-02-16T12:21:35;8.50;99.90
53264;DHT22;39153;52.680;6.172;2023-02-16T12:24:39;8.50;99.90
53264;DHT22;39153;52.680;6.172;2023-02-16T12:27:17;8.50;99.90
53264;DHT22;39153;52.680;6.172;2023-02-16T12:30:07;8.60;99.90
53264;DHT22;39153;52.680;6.172;2023-02-16T12:40:54;9.40;99.90
53264;DHT22;39153;52.680;6.172;2023-02-16T12:43:31;9.40;99.90
53264;DHT22;39153;52.680;6.172;2023-02-16T12:46:31;9.40;99.90
53264;DHT22;39153;52.680;6.172;2023-02-16T12:49:06;9.50;99.90
53264;DHT22;39153;52.680;6.172;2023-02-16T12:51:41;9.50;99.90
53264;DHT22;39153;52.680;6.172;2023-02-16T12:54:18;9.60;99.90
53264;DHT22;39153;52.680;6.172;2023-02-16T12:57:00;10.00;99.90
53264;DHT22;39153;52.680;6.172;2023-02-16T13:02:25;10.40;99.90
53264;DHT22;39153;52.680;6.172;2023-02-16T13:05:05;10.50;99.90
53264;DHT22;39153;52.680;6.172;2023-02-16T13:07:41;10.50;99.90
53264;DHT22;39153;52.680;6.172;2023-02-16T13:10:32;10.70;99.90
53264;DHT22;39153;52.680;6.172;2023-02-16T13:13:11;10.60;99.90
53264;DHT22;39153;52.680;6.172;2023-02-16T13:15:47;10.50;99.90
53264;DHT22;39153;52.680;6.172;2023-02-16T13:18:28;10.40;99.90
53264;DHT22;39153;52.680;6.172;2023-02-16T13:21:01;10.20;99.90
53264;DHT22;39153;52.680;6.172;2023-02-16T13:26:53;10.00;99.90
53264;DHT22;39153;52.680;6.172;2023-02-16T13:29:38;9.90;99.90
53264;DHT22;39153;52.680;6.172;2023-02-16T13:37:53;9.80;99.90
53264;DHT22;39153;52.680;6.172;2023-02-16T13:45:48;10.10;99.90
53264;DHT22;39153;52.680;6.172;2023-02-16T13:48:46;9.70;99.90
53264;DHT22;39153;52.680;6.172;2023-02-16T13:51:14;10.10;99.90
53264;DHT22;39153;52.680;6.172;2023-02-16T13:53:42;10.10;99.90
53264;DHT22;39153;52.680;6.172;2023-02-16T13:58:50;9.90;99.90
53264;DHT22;39153;52.680;6.172;2023-02-16T14:01:40;9.90;99.90
53264;DHT22;39153;52.680;6.172;2023-02-16T14:24:59;10.10;99.90
53264;DHT22;39153;52.680;6.172;2023-02-16T14:30:44;10.00;99.90
53264;DHT22;39153;52.680;6.172;2023-02-16T14:35:38;9.90;99.90
53264;DHT22;39153;52.680;6.172;2023-02-16T14:40:57;9.80;99.90
53264;DHT22;39153;52.680;6.172;2023-02-16T14:43:45;9.80;99.90
53264;DHT22;39153;52.680;6.172;2023-02-16T14:46:30;9.80;99.90
53264;DHT22;39153;52.680;6.172;2023-02-16T15:01:10;9.70;99.90
53264;DHT22;39153;52.680;6.172;2023-02-16T15:03:48;9.60;99.90
53264;DHT22;39153;52.680;6.172;2023-02-16T15:09:16;9.50;99.90
53264;DHT22;39153;52.680;6.172;2023-02-16T15:11:51;9.50;99.90
53264;DHT22;39153;52.680;6.172;2023-02-16T15:14:49;9.50;99.90
53264;DHT22;39153;52.680;6.172;2023-02-16T15:17:28;9.50;99.90
53264;DHT22;39153;52.680;6.172;2023-02-16T15:19:57;9.50;99.90
53264;DHT22;39153;52.680;6.172;2023-02-16T15:22:26;9.50;99.90
53264;DHT22;39153;52.680;6.172;2023-02-16T15:24:55;9.40;99.90
53264;DHT22;39153;52.680;6.172;2023-02-16T15:27:22;9.40;99.90
53264;DHT22;39153;52.680;6.172;2023-02-16T15:30:19;9.40;99.90
53264;DHT22;39153;52.680;6.172;2023-02-16T15:32:51;9.50;99.90
53264;DHT22;39153;52.680;6.172;2023-02-16T15:35:24;9.40;99.90
53264;DHT22;39153;52.680;6.172;2023-02-16T15:38:02;9.50;99.90
53264;DHT22;39153;52.680;6.172;2023-02-16T15:40:28;9.40;99.90
53264;DHT22;39153;52.680;6.172;2023-02-16T15:43:07;9.40;99.90
53264;DHT22;39153;52.680;6.172;2023-02-16T15:45:35;9.40;99.90
53264;DHT22;39153;52.680;6.172;2023-02-16T15:48:20;9.40;99.90
53264;DHT22;39153;52.680;6.172;2023-02-16T15:50:46;9.40;99.90
53264;DHT22;39153;52.680;6.172;2023-02-16T15:53:13;9.40;99.90
53264;DHT22;39153;52.680;6.172;2023-02-16T15:55:45;9.40;99.90
53264;DHT22;39153;52.680;6.172;2023-02-16T15:58:13;9.40;99.90
53264;DHT22;39153;52.680;6.172;2023-02-16T16:00:41;9.40;99.90
53264;DHT22;39153;52.680;6.172;2023-02-16T16:03:13;9.30;99.90
53264;DHT22;39153;52.680;6.172;2023-02-16T16:05:40;9.40;99.90
53264;DHT22;39153;52.680;6.172;2023-02-16T16:08:12;9.40;99.90
53264;DHT22;39153;52.680;6.172;2023-02-16T16:10:39;9.40;99.90
53264;DHT22;39153;52.680;6.172;2023-02-16T16:13:14;9.50;99.90
53264;DHT22;39153;52.680;6.172;2023-02-16T16:15:45;9.50;99.90
53264;DHT22;39153;52.680;6.172;2023-02-16T16:18:41;9.50;99.90
53264;DHT22;39153;52.680;6.172;2023-02-16T16:21:14;9.50;99.90
53264;DHT22;39153;52.680;6.172;2023-02-16T16:23:40;9.50;99.90
53264;DHT22;39153;52.680;6.172;2023-02-16T16:26:20;9.50;99.90
53264;DHT22;39153;52.680;6.172;2023-02-16T16:28:46;9.50;99.90
53264;DHT22;39153;52.680;6.172;2023-02-16T16:33:55;9.40;99.90
53264;DHT22;39153;52.680;6.172;2023-02-16T16:36:32;9.40;99.90
53264;DHT22;39153;52.680;6.172;2023-02-16T16:41:36;9.30;99.90
53264;DHT22;39153;52.680;6.172;2023-02-16T16:44:02;9.20;99.90
53264;DHT22;39153;52.680;6.172;2023-02-16T16:46:29;9.20;99.90
53264;DHT22;39153;52.680;6.172;2023-02-16T16:49:00;9.10;99.90
53264;DHT22;39153;52.680;6.172;2023-02-16T16:51:41;9.00;99.90
53264;DHT22;39153;52.680;6.172;2023-02-16T16:54:33;9.10;99.90
53264;DHT22;39153;52.680;6.172;2023-02-16T16:57:08;8.90;99.90
53264;DHT22;39153;52.680;6.172;2023-02-16T16:59:37;9.00;99.90
53264;DHT22;39153;52.680;6.172;2023-02-16T17:02:03;9.00;99.90
53264;DHT22;39153;52.680;6.172;2023-02-16T17:04:28;9.00;99.90
53264;DHT22;39153;52.680;6.172;2023-02-16T17:06:54;8.90;99.90
53264;DHT22;39153;52.680;6.172;2023-02-16T17:09:19;9.00;99.90
53264;DHT22;39153;52.680;6.172;2023-02-16T17:11:45;8.90;99.90
53264;DHT22;39153;52.680;6.172;2023-02-16T17:14:18;8.90;99.90
53264;DHT22;39153;52.680;6.172;2023-02-16T17:16:47;8.90;99.90
53264;DHT22;39153;52.680;6.172;2023-02-16T17:19:16;8.70;99.90
53264;DHT22;39153;52.680;6.172;2023-02-16T17:21:44;8.80;99.90
53264;DHT22;39153;52.680;6.172;2023-02-16T17:24:10;8.70;99.90
53264;DHT22;39153;52.680;6.172;2023-02-16T17:26:36;8.80;99.90
53264;DHT22;39153;52.680;6.172;2023-02-16T17:29:03;8.90;99.90
53264;DHT22;39153;52.680;6.172;2023-02-16T17:31:29;8.60;99.90
53264;DHT22;39153;52.680;6.172;2023-02-16T17:33:54;8.70;99.90
53264;DHT22;39153;52.680;6.172;2023-02-16T17:36:22;8.60;99.90
53264;DHT22;39153;52.680;6.172;2023-02-16T17:38:49;8.60;99.90
53264;DHT22;39153;52.680;6.172;2023-02-16T17:41:22;8.90;99.90
53264;DHT22;39153;52.680;6.172;2023-02-16T17:43:48;8.60;99.90
53264;DHT22;39153;52.680;6.172;2023-02-16T17:46:14;9.00;99.90
53264;DHT22;39153;52.680;6.172;2023-02-16T17:48:40;9.00;99.90
53264;DHT22;39153;52.680;6.172;2023-02-16T17:51:14;8.60;99.90
53264;DHT22;39153;52.680;6.172;2023-02-16T17:53:41;9.10;99.90
53264;DHT22;39153;52.680;6.172;2023-02-16T17:56:10;9.10;99.90
53264;DHT22;39153;52.680;6.172;2023-02-16T17:58:36;8.60;99.90
53264;DHT22;39153;52.680;6.172;2023-02-16T18:01:03;9.10;99.90
53264;DHT22;39153;52.680;6.172;2023-02-16T18:03:28;8.60;99.90
53264;DHT22;39153;52.680;6.172;2023-02-16T18:05:54;8.90;99.90
53264;DHT22;39153;52.680;6.172;2023-02-16T18:08:20;9.10;99.90
53264;DHT22;39153;52.680;6.172;2023-02-16T18:10:52;9.00;99.90
53264;DHT22;39153;52.680;6.172;2023-02-16T18:13:18;8.70;99.90
53264;DHT22;39153;52.680;6.172;2023-02-16T18:15:47;9.10;99.90
53264;DHT22;39153;52.680;6.172;2023-02-16T18:18:17;8.80;99.90
53264;DHT22;39153;52.680;6.172;2023-02-16T18:20:43;8.90;99.90
53264;DHT22;39153;52.680;6.172;2023-02-16T18:23:09;8.80;99.90
53264;DHT22;39153;52.680;6.172;2023-02-16T18:25:35;8.80;99.90
53264;DHT22;39153;52.680;6.172;2023-02-16T18:28:01;9.20;99.90
53264;DHT22;39153;52.680;6.172;2023-02-16T18:30:27;8.80;99.90
53264;DHT22;39153;52.680;6.172;2023-02-16T18:32:53;8.80;99.90